Time;durP1;ratioP1;P1;durP2;ratioP2;P2;SDS_P1;SDS_P2;PMS_P1;PMS_P2;Temp;Humidity;BMP_temperature;BMP_pressure;BME280_temperature;BME280_humidity;BME280_pressure;Samples;Min_cycle;Max_cycle;Signal;HPM_P1;HPM_P2
2022/03/16 00:00:06;;;;;;;16.35;11.70;;;8.20;99.90;;;;;;5052232;28;20376;-87
2022/03/16 00:02:31;;;;;;;17.60;11.65;;;8.20;99.90;;;;;;5051366;28;20490;-88
2022/03/16 00:04:58;;;;;;;19.93;12.50;;;8.10;99.90;;;;;;5051294;28;20416;-88
2022/03/16 00:07:23;;;;;;;18.13;12.52;;;7.90;99.90;;;;;;5053824;28;20376;-87
2022/03/16 00:09:49;;;;;;;19.20;12.68;;;8.00;99.90;;;;;;5050819;28;20935;-87
2022/03/16 00:12:16;;;;;;;16.95;12.00;;;8.00;99.90;;;;;;5052220;28;20380;-88
2022/03/16 00:14:42;;;;;;;18.95;12.75;;;8.00;99.90;;;;;;5052411;28;20392;-88
2022/03/16 00:17:09;;;;;;;17.40;11.40;;;7.90;99.90;;;;;;5051295;28;20470;-87
2022/03/16 00:19:35;;;;;;;21.00;12.27;;;7.80;99.90;;;;;;5051288;28;20406;-87
2022/03/16 00:22:03;;;;;;;18.55;12.73;;;8.00;99.90;;;;;;5051371;28;20394;-87
2022/03/16 00:24:30;;;;;;;17.15;11.65;;;7.90;99.90;;;;;;5059725;28;20959;-87
2022/03/16 00:26:55;;;;;;;19.40;12.43;;;7.80;99.90;;;;;;5058462;28;20481;-87
2022/03/16 00:29:21;;;;;;;21.47;11.93;;;7.80;99.90;;;;;;5056500;28;20904;-88
2022/03/16 00:31:47;;;;;;;16.70;12.33;;;7.60;99.90;;;;;;5055882;28;20981;-88
2022/03/16 00:34:13;;;;;;;18.52;13.05;;;7.50;99.90;;;;;;5053669;28;20423;-87
2022/03/16 00:36:39;;;;;;;19.47;13.27;;;7.50;99.90;;;;;;5050426;28;20423;-88
2022/03/16 00:39:05;;;;;;;20.55;13.27;;;7.50;99.90;;;;;;5050639;28;20462;-88
2022/03/16 00:41:32;;;;;;;24.33;14.20;;;7.40;99.90;;;;;;5050123;28;20928;-87
2022/03/16 00:43:58;;;;;;;17.92;12.27;;;7.30;99.90;;;;;;5049926;28;20465;-88
2022/03/16 00:46:24;;;;;;;18.65;13.23;;;7.20;99.90;;;;;;5049422;28;20380;-88
2022/03/16 00:48:50;;;;;;;18.30;13.25;;;7.10;99.90;;;;;;5051876;28;20438;-87
2022/03/16 00:51:15;;;;;;;19.63;13.75;;;7.00;99.90;;;;;;5050686;28;20892;-87
2022/03/16 00:53:42;;;;;;;18.90;13.63;;;7.00;99.90;;;;;;5049324;28;20928;-88
2022/03/16 00:56:08;;;;;;;18.13;12.65;;;6.90;99.90;;;;;;5051749;28;20471;-87
2022/03/16 00:58:34;;;;;;;23.73;13.60;;;6.80;99.90;;;;;;5050300;28;20368;-87
2022/03/16 01:01:01;;;;;;;21.13;13.25;;;6.80;99.90;;;;;;5048990;28;20388;-87
2022/03/16 01:03:28;;;;;;;16.38;11.82;;;6.70;99.90;;;;;;5049343;28;20482;-87
2022/03/16 01:05:54;;;;;;;18.95;12.65;;;6.50;99.90;;;;;;5049584;28;20394;-87
2022/03/16 01:08:19;;;;;;;20.00;12.53;;;6.40;99.90;;;;;;5049615;28;20463;-87
2022/03/16 01:10:45;;;;;;;18.20;13.23;;;6.20;99.90;;;;;;5050834;28;20743;-87
2022/03/16 01:13:11;;;;;;;19.00;13.63;;;6.10;99.90;;;;;;5049830;28;20431;-87
2022/03/16 01:15:37;;;;;;;21.83;13.40;;;6.00;99.90;;;;;;5049647;28;20380;-87
2022/03/16 01:18:03;;;;;;;22.30;13.53;;;5.90;99.90;;;;;;5049301;28;20392;-88
2022/03/16 01:20:28;;;;;;;21.77;13.85;;;5.60;99.90;;;;;;5053668;28;20384;-88
2022/03/16 01:22:54;;;;;;;20.02;13.07;;;5.50;99.90;;;;;;5049832;28;20389;-88
2022/03/16 01:25:19;;;;;;;17.77;12.73;;;5.30;99.90;;;;;;5049421;28;20395;-87
2022/03/16 01:27:45;;;;;;;18.57;12.73;;;5.20;99.90;;;;;;5050423;28;20452;-88
2022/03/16 01:30:13;;;;;;;20.27;13.03;;;5.10;99.90;;;;;;5050710;28;20398;-88
2022/03/16 01:32:39;;;;;;;19.50;13.15;;;5.00;99.90;;;;;;5051034;28;20459;-88
2022/03/16 01:35:06;;;;;;;17.00;12.13;;;4.80;99.90;;;;;;5049925;28;20383;-87
2022/03/16 01:37:32;;;;;;;20.05;13.45;;;4.70;99.90;;;;;;5049828;28;20392;-87
2022/03/16 01:39:57;;;;;;;20.57;13.37;;;4.60;99.90;;;;;;5050677;28;20748;-87
2022/03/16 01:42:23;;;;;;;20.35;14.18;;;4.60;99.90;;;;;;5050917;28;20406;-88
2022/03/16 01:44:52;;;;;;;19.38;13.05;;;4.50;99.90;;;;;;5053621;28;20820;-88
2022/03/16 01:47:19;;;;;;;18.55;12.27;;;4.40;99.90;;;;;;5051765;28;20423;-87
2022/03/16 01:49:47;;;;;;;19.75;13.40;;;4.30;99.90;;;;;;5049492;28;20383;-87
2022/03/16 01:52:16;;;;;;;23.63;14.73;;;4.40;99.90;;;;;;5049769;28;20388;-87
2022/03/16 01:54:42;;;;;;;20.73;15.18;;;4.50;99.90;;;;;;5048778;28;20684;-87
2022/03/16 01:57:09;;;;;;;25.07;15.57;;;4.40;99.90;;;;;;5050086;28;20415;-87
2022/03/16 01:59:36;;;;;;;21.08;14.18;;;4.30;99.90;;;;;;5050007;28;20398;-87
2022/03/16 02:02:03;;;;;;;18.75;13.77;;;4.10;99.90;;;;;;5048797;28;20474;-87
2022/03/16 02:04:29;;;;;;;21.02;13.10;;;4.00;99.90;;;;;;5049337;28;20837;-87
2022/03/16 02:06:54;;;;;;;18.77;13.05;;;3.80;99.90;;;;;;5053377;28;20482;-87
2022/03/16 02:09:21;;;;;;;23.40;14.80;;;3.60;99.90;;;;;;5053632;28;20429;-87
2022/03/16 02:11:48;;;;;;;19.38;13.75;;;3.60;99.90;;;;;;5055713;28;20380;-87
2022/03/16 02:14:13;;;;;;;19.52;14.50;;;3.60;99.90;;;;;;5054247;28;20441;-87
2022/03/16 02:16:39;;;;;;;21.20;14.43;;;3.50;99.90;;;;;;5054597;28;20380;-87
2022/03/16 02:19:05;;;;;;;20.67;14.20;;;3.50;99.90;;;;;;5053838;28;20399;-87
2022/03/16 02:21:34;;;;;;;23.02;15.13;;;3.60;99.90;;;;;;5054870;28;20388;-87
2022/03/16 02:24:01;;;;;;;20.48;14.35;;;3.40;99.90;;;;;;5053602;28;20408;-87
2022/03/16 02:26:27;;;;;;;18.42;13.98;;;3.30;99.90;;;;;;5054840;28;20397;-87
2022/03/16 02:28:53;;;;;;;23.17;15.90;;;3.30;99.90;;;;;;5056398;28;20403;-86
2022/03/16 02:31:20;;;;;;;25.08;16.17;;;3.30;99.90;;;;;;5055624;28;20399;-87
2022/03/16 02:33:46;;;;;;;23.20;15.73;;;3.30;99.90;;;;;;5053611;28;20465;-87
2022/03/16 02:36:12;;;;;;;24.17;15.52;;;3.10;99.90;;;;;;5053783;28;20877;-87
2022/03/16 02:38:38;;;;;;;22.23;15.35;;;3.20;99.90;;;;;;5052941;28;20392;-87
2022/03/16 02:41:03;;;;;;;25.27;15.15;;;3.10;99.90;;;;;;5052804;28;20383;-87
2022/03/16 02:43:29;;;;;;;22.97;15.57;;;3.10;99.90;;;;;;5051804;28;20473;-87
2022/03/16 02:45:55;;;;;;;22.13;14.97;;;3.10;99.90;;;;;;5052495;28;20388;-88
2022/03/16 02:48:21;;;;;;;21.53;14.57;;;2.90;99.90;;;;;;5051894;28;20390;-87
2022/03/16 02:50:47;;;;;;;18.38;13.95;;;2.90;99.90;;;;;;5053490;28;20388;-87
2022/03/16 02:53:15;;;;;;;20.90;15.05;;;2.90;99.90;;;;;;5052408;28;20387;-87
2022/03/16 02:55:41;;;;;;;21.23;14.50;;;2.80;99.90;;;;;;5052743;28;20908;-88
2022/03/16 02:58:08;;;;;;;20.55;13.50;;;3.60;99.90;;;;;;5051749;28;20497;-87
2022/03/16 03:00:34;;;;;;;21.67;14.65;;;2.80;99.90;;;;;;5051766;28;20402;-87
2022/03/16 03:02:59;;;;;;;17.98;13.75;;;2.70;99.90;;;;;;5051972;28;20406;-87
2022/03/16 03:05:25;;;;;;;21.45;14.43;;;2.90;99.90;;;;;;5050984;28;20955;-87
2022/03/16 03:07:51;;;;;;;19.33;14.30;;;3.40;99.90;;;;;;5051881;28;20471;-87
2022/03/16 03:10:17;;;;;;;19.73;14.40;;;3.20;99.90;;;;;;5051633;28;20407;-87
2022/03/16 03:12:43;;;;;;;18.38;13.40;;;2.70;99.90;;;;;;5051757;28;20388;-87
2022/03/16 03:15:11;;;;;;;20.30;14.73;;;3.10;99.90;;;;;;5051039;28;20571;-87
2022/03/16 03:17:37;;;;;;;19.60;14.40;;;2.60;99.90;;;;;;5051733;28;20384;-87
2022/03/16 03:20:04;;;;;;;22.80;16.33;;;2.50;99.90;;;;;;5052975;28;20376;-87
2022/03/16 03:22:29;;;;;;;21.52;15.45;;;2.40;99.90;;;;;;5051495;28;20407;-86
2022/03/16 03:24:56;;;;;;;21.30;15.10;;;2.80;99.90;;;;;;5051730;28;20400;-87
2022/03/16 03:27:22;;;;;;;23.17;15.57;;;2.30;99.90;;;;;;5051190;28;20445;-87
2022/03/16 03:29:48;;;;;;;20.80;14.90;;;2.30;99.90;;;;;;5051974;28;20395;-87
2022/03/16 03:32:14;;;;;;;21.98;15.13;;;2.30;99.90;;;;;;5051903;28;20388;-87
2022/03/16 03:34:39;;;;;;;18.80;14.48;;;2.20;99.90;;;;;;5054326;28;20924;-87
2022/03/16 03:37:06;;;;;;;20.95;15.70;;;2.20;99.90;;;;;;5053831;28;20388;-87
2022/03/16 03:39:32;;;;;;;20.80;14.80;;;2.20;99.90;;;;;;5051965;28;20383;-87
2022/03/16 03:41:58;;;;;;;24.58;16.15;;;2.20;99.90;;;;;;5051762;28;20907;-87
2022/03/16 03:44:24;;;;;;;19.98;15.20;;;2.20;99.90;;;;;;5052100;28;20754;-87
2022/03/16 03:46:50;;;;;;;22.23;14.77;;;2.20;99.90;;;;;;5050952;28;20378;-87
2022/03/16 03:49:16;;;;;;;20.50;14.80;;;2.20;99.90;;;;;;5052024;28;20395;-87
2022/03/16 03:51:41;;;;;;;22.80;15.47;;;2.10;99.90;;;;;;5050794;28;20388;-87
2022/03/16 03:54:07;;;;;;;20.43;15.53;;;2.00;99.90;;;;;;5051757;28;20726;-87
2022/03/16 03:56:32;;;;;;;21.30;15.38;;;2.00;99.90;;;;;;5051003;28;20420;-87
2022/03/16 03:58:58;;;;;;;23.08;15.10;;;1.90;99.90;;;;;;5051077;28;20407;-87
2022/03/16 04:01:24;;;;;;;24.33;16.55;;;1.90;99.90;;;;;;5050713;28;20388;-87
2022/03/16 04:03:50;;;;;;;23.47;15.33;;;2.00;99.90;;;;;;5051523;28;20392;-87
2022/03/16 04:06:16;;;;;;;21.85;15.20;;;1.90;99.90;;;;;;5054585;28;20419;-87
2022/03/16 04:08:45;;;;;;;23.80;15.43;;;1.90;99.90;;;;;;5051364;28;20427;-87
2022/03/16 04:11:11;;;;;;;24.55;15.50;;;1.70;99.90;;;;;;5051777;28;20928;-87
2022/03/16 04:13:37;;;;;;;19.63;14.63;;;1.70;99.90;;;;;;5050304;28;20387;-87
2022/03/16 04:16:03;;;;;;;23.38;15.60;;;1.70;99.90;;;;;;5051286;28;20438;-87
2022/03/16 04:18:29;;;;;;;22.98;14.38;;;1.60;99.90;;;;;;5050308;28;20392;-87
2022/03/16 04:20:55;;;;;;;21.60;14.50;;;1.60;99.90;;;;;;5050430;28;20384;-87
2022/03/16 04:23:21;;;;;;;19.63;14.83;;;1.60;99.90;;;;;;5050840;28;20452;-87
2022/03/16 04:25:47;;;;;;;21.33;14.77;;;1.60;99.90;;;;;;5050735;28;20746;-86
2022/03/16 04:28:12;;;;;;;19.97;14.00;;;1.50;99.90;;;;;;5049504;28;20893;-87
2022/03/16 04:30:38;;;;;;;20.33;14.70;;;1.50;99.90;;;;;;5050545;28;20388;-87
2022/03/16 07:30:29;;;;;;;33.53;25.48;;;5.60;99.90;;;;;;5045018;28;20411;-88
2022/03/16 07:32:56;;;;;;;33.63;25.80;;;5.40;99.90;;;;;;5040447;28;20385;-87
2022/03/16 07:35:26;;;;;;;33.85;25.65;;;5.30;99.90;;;;;;5046075;28;20406;-87
2022/03/16 07:37:54;;;;;;;35.58;26.23;;;5.40;99.90;;;;;;5045866;28;20506;-87
2022/03/16 07:40:20;;;;;;;30.95;25.38;;;5.30;99.90;;;;;;5024791;28;20378;-86
2022/03/16 07:42:47;;;;;;;34.30;25.90;;;5.50;99.90;;;;;;5043070;28;20473;-88
2022/03/16 07:45:15;;;;;;;35.20;26.70;;;5.40;99.90;;;;;;5052483;28;20417;-87
2022/03/16 07:47:42;;;;;;;33.28;25.65;;;5.30;99.90;;;;;;5055027;28;20387;-88
2022/03/16 07:50:09;;;;;;;33.30;26.05;;;5.40;99.90;;;;;;5050909;28;20877;-88
2022/03/16 07:52:35;;;;;;;37.17;26.23;;;5.40;99.90;;;;;;5046006;28;20877;-88
2022/03/16 07:55:01;;;;;;;34.43;26.53;;;5.50;99.90;;;;;;5043710;28;20392;-88
2022/03/16 07:57:27;;;;;;;31.05;24.27;;;5.50;99.90;;;;;;5047214;28;20393;-87
2022/03/16 07:59:52;;;;;;;31.83;24.07;;;5.60;99.90;;;;;;5043547;28;20427;-88
2022/03/16 08:02:18;;;;;;;29.17;22.23;;;5.70;99.90;;;;;;5044951;28;20416;-87
2022/03/16 08:04:44;;;;;;;27.10;21.13;;;5.90;99.90;;;;;;5043233;28;20522;-89
2022/03/16 08:07:10;;;;;;;27.80;21.63;;;6.00;99.90;;;;;;5037717;28;20381;-88
2022/03/16 08:09:36;;;;;;;27.63;21.30;;;6.00;99.90;;;;;;5041967;28;20405;-89
2022/03/16 08:12:03;;;;;;;28.92;21.45;;;5.80;99.90;;;;;;5040869;28;20481;-89
2022/03/16 08:14:39;;;;;;;30.52;23.13;;;5.60;99.90;;;;;;5043352;28;20471;-87
2022/03/16 08:17:04;;;;;;;31.73;22.88;;;5.30;99.90;;;;;;5042333;28;20380;-87
2022/03/16 08:19:30;;;;;;;32.20;25.43;;;5.40;99.90;;;;;;5044791;28;20414;-88
2022/03/16 08:21:56;;;;;;;33.33;25.45;;;5.30;99.90;;;;;;5039510;28;20412;-86
2022/03/16 08:24:21;;;;;;;33.88;26.17;;;5.30;99.90;;;;;;5042468;28;20400;-88
2022/03/16 08:26:47;;;;;;;34.95;26.90;;;5.20;99.90;;;;;;5039445;28;20398;-88
2022/03/16 08:29:13;;;;;;;32.30;25.50;;;5.30;99.90;;;;;;5042466;28;20428;-88
2022/03/16 08:31:38;;;;;;;33.53;26.00;;;5.40;99.90;;;;;;5040144;28;20467;-88
2022/03/16 08:34:04;;;;;;;31.35;23.90;;;5.60;99.90;;;;;;5041001;28;20726;-87
2022/03/16 08:36:30;;;;;;;32.33;25.17;;;5.70;99.90;;;;;;5043725;28;20388;-91
2022/03/16 08:38:56;;;;;;;31.52;24.45;;;6.00;99.90;;;;;;5040303;28;20392;-89
2022/03/16 08:41:21;;;;;;;30.35;23.33;;;6.00;99.90;;;;;;5040693;28;20437;-89
2022/03/16 08:43:48;;;;;;;29.73;23.43;;;6.10;99.90;;;;;;5042169;28;20399;-88
2022/03/16 08:46:13;;;;;;;30.98;23.33;;;6.20;99.90;;;;;;5040111;28;20476;-87
2022/03/16 08:48:39;;;;;;;27.80;23.05;;;6.30;99.90;;;;;;5042542;28;20452;-88
2022/03/16 08:51:08;;;;;;;28.38;22.65;;;6.40;99.90;;;;;;5040607;28;20473;-87
2022/03/16 08:53:34;;;;;;;25.70;21.50;;;6.50;99.90;;;;;;5040872;28;20416;-88
2022/03/16 08:56:01;;;;;;;26.55;21.25;;;6.80;99.90;;;;;;5040206;28;20468;-88
2022/03/16 08:58:27;;;;;;;29.85;22.90;;;7.00;99.90;;;;;;5041873;28;20478;-89
2022/03/16 09:00:53;;;;;;;24.30;20.93;;;7.20;99.90;;;;;;5043836;28;20496;-88
2022/03/16 09:03:19;;;;;;;26.03;20.20;;;7.20;99.90;;;;;;5042034;28;20466;-87
2022/03/16 09:05:45;;;;;;;24.47;20.67;;;7.30;99.90;;;;;;5040757;28;20480;-88
2022/03/16 09:08:11;;;;;;;24.90;20.40;;;7.40;99.90;;;;;;5039941;28;21097;-87
2022/03/16 09:10:36;;;;;;;24.20;19.63;;;7.60;99.90;;;;;;5047634;28;20391;-86
2022/03/16 09:13:04;;;;;;;28.00;19.77;;;7.60;99.90;;;;;;5039219;28;20458;-88
2022/03/16 09:15:30;;;;;;;30.65;21.90;;;7.60;99.90;;;;;;5045484;28;20409;-86
2022/03/16 09:17:57;;;;;;;26.85;20.48;;;7.60;99.90;;;;;;5039654;28;21033;-88
2022/03/16 09:20:23;;;;;;;28.50;22.00;;;7.60;99.90;;;;;;5041563;28;20383;-88
2022/03/16 09:22:49;;;;;;;23.42;19.50;;;7.80;99.90;;;;;;5047418;28;20388;-89
2022/03/16 09:25:14;;;;;;;23.45;18.85;;;7.80;99.90;;;;;;5043945;28;20420;-88
2022/03/16 09:27:57;;;;;;;25.85;18.35;;;7.90;99.90;;;;;;5039919;28;20442;-89
2022/03/16 09:30:24;;;;;;;21.70;17.75;;;8.00;99.90;;;;;;5043438;28;20392;-88
2022/03/16 09:32:54;;;;;;;23.63;18.42;;;8.10;99.90;;;;;;5040713;28;20815;-88
2022/03/16 09:35:20;;;;;;;23.05;17.98;;;8.20;99.90;;;;;;5042500;28;20395;-84
2022/03/16 09:37:46;;;;;;;21.67;16.45;;;8.30;99.90;;;;;;5039977;28;20483;-87
2022/03/16 09:40:12;;;;;;;29.23;17.30;;;8.30;99.90;;;;;;5043587;28;20886;-87
2022/03/16 09:42:39;;;;;;;20.70;17.00;;;8.30;99.90;;;;;;5041546;28;20388;-86
2022/03/16 09:45:19;;;;;;;20.60;15.90;;;8.40;99.90;;;;;;5049924;28;20395;-88
2022/03/16 09:47:49;;;;;;;20.52;16.63;;;8.60;99.90;;;;;;5046158;28;20896;-87
2022/03/16 09:50:19;;;;;;;20.95;16.55;;;8.90;99.90;;;;;;5041093;28;20733;-87
2022/03/16 09:52:45;;;;;;;21.48;17.08;;;9.00;99.90;;;;;;5039253;28;20396;-88
2022/03/16 09:55:11;;;;;;;22.23;17.10;;;8.90;99.90;;;;;;5043402;28;20381;-87
2022/03/16 09:57:37;;;;;;;19.37;16.03;;;8.90;99.90;;;;;;5044757;28;20391;-87
2022/03/16 10:00:03;;;;;;;22.03;16.13;;;9.10;99.90;;;;;;5039957;28;20464;-86
2022/03/16 10:02:28;;;;;;;19.60;15.57;;;9.00;99.90;;;;;;5041765;28;20396;-86
2022/03/16 10:04:54;;;;;;;18.80;14.57;;;9.20;99.90;;;;;;5044397;28;20395;-85
2022/03/16 10:07:28;;;;;;;18.48;14.40;;;9.50;99.90;;;;;;5039270;28;20379;-87
2022/03/16 10:15:23;;;;;;;18.27;13.27;;;9.80;99.90;;;;;;5044641;28;20411;-86
2022/03/16 10:17:59;;;;;;;16.20;13.25;;;9.70;99.90;;;;;;5042136;28;20402;-88
2022/03/16 10:20:29;;;;;;;16.90;13.52;;;9.80;99.90;;;;;;5044667;28;20393;-86
2022/03/16 10:23:02;;;;;;;17.75;14.00;;;9.90;99.90;;;;;;5044363;28;20402;-87
2022/03/16 10:25:34;;;;;;;16.27;13.60;;;10.10;99.90;;;;;;5045169;28;20514;-86
2022/03/16 10:28:12;;;;;;;17.48;13.45;;;10.10;99.90;;;;;;5049242;28;20401;-85
2022/03/16 10:30:59;;;;;;;16.00;13.32;;;10.30;99.90;;;;;;5049467;28;20417;-86
2022/03/16 10:33:26;;;;;;;18.92;14.20;;;10.20;99.90;;;;;;5045151;28;20489;-88
2022/03/16 10:36:04;;;;;;;17.30;13.80;;;10.30;99.90;;;;;;5050298;28;20391;-85
2022/03/16 10:38:58;;;;;;;15.52;13.68;;;10.40;99.90;;;;;;5046248;28;20472;-88
2022/03/16 10:47:11;;;;;;;15.35;12.63;;;10.60;99.90;;;;;;5049815;28;20457;-85
2022/03/16 10:49:38;;;;;;;15.80;13.05;;;10.60;99.90;;;;;;5045645;28;20386;-85
2022/03/16 10:52:17;;;;;;;18.95;13.00;;;10.50;99.90;;;;;;5048230;28;20429;-86
2022/03/16 10:54:45;;;;;;;15.60;13.02;;;10.50;99.90;;;;;;5049703;28;20799;-86
2022/03/16 10:57:13;;;;;;;16.27;12.77;;;10.70;99.90;;;;;;5048196;28;20436;-87
2022/03/16 10:59:40;;;;;;;14.10;12.13;;;11.00;99.90;;;;;;5033195;28;20750;-87
2022/03/16 11:02:12;;;;;;;30.17;13.95;;;11.20;99.90;;;;;;5040439;28;20878;-86
2022/03/16 11:04:41;;;;;;;15.77;12.85;;;11.60;99.90;;;;;;5048947;28;20405;-86
2022/03/16 11:07:07;;;;;;;14.93;12.00;;;11.60;99.90;;;;;;5046210;28;20504;-87
2022/03/16 11:09:34;;;;;;;14.43;12.20;;;11.60;99.90;;;;;;5049707;28;20404;-86
2022/03/16 11:14:49;;;;;;;16.45;13.05;;;11.40;99.90;;;;;;5046701;28;20398;-90
2022/03/16 11:17:17;;;;;;;15.27;11.60;;;11.40;99.90;;;;;;5046044;28;20479;-88
2022/03/16 11:19:46;;;;;;;15.23;11.73;;;11.40;99.90;;;;;;5044771;28;20377;-86
2022/03/16 11:22:30;;;;;;;13.30;10.82;;;11.30;99.90;;;;;;5029063;28;20485;-85
2022/03/16 11:25:12;;;;;;;12.27;10.55;;;11.40;99.90;;;;;;5045102;28;20407;-85
2022/03/16 11:27:52;;;;;;;14.10;10.65;;;11.40;99.90;;;;;;5045204;28;20383;-87
2022/03/16 11:30:29;;;;;;;16.02;11.45;;;11.10;99.90;;;;;;5032749;28;20961;-88
2022/03/16 11:33:00;;;;;;;16.15;12.10;;;11.10;99.90;;;;;;5047660;28;20399;-86
2022/03/16 11:35:44;;;;;;;13.95;11.52;;;11.10;99.90;;;;;;5043850;28;20846;-88
2022/03/16 11:38:13;;;;;;;13.45;11.55;;;11.20;99.90;;;;;;5030435;28;20392;-86
2022/03/16 11:40:40;;;;;;;14.65;11.43;;;11.40;99.90;;;;;;5040251;28;20368;-86
2022/03/16 11:43:11;;;;;;;14.23;11.50;;;11.20;99.90;;;;;;5046832;28;20557;-86
2022/03/16 11:45:43;;;;;;;13.32;11.60;;;11.20;99.90;;;;;;5042750;28;20491;-86
2022/03/16 11:48:37;;;;;;;13.32;11.05;;;11.30;99.90;;;;;;5043396;28;20388;-86
2022/03/16 11:51:08;;;;;;;12.88;10.40;;;11.40;99.90;;;;;;5043589;28;20446;-85
2022/03/16 11:56:25;;;;;;;13.50;10.80;;;11.60;99.90;;;;;;5044264;28;20384;-85
2022/03/16 11:59:00;;;;;;;19.70;10.77;;;11.60;99.90;;;;;;5047287;28;20877;-87
2022/03/16 12:01:29;;;;;;;13.90;10.20;;;11.50;99.90;;;;;;5046691;28;20399;-86
2022/03/16 12:04:23;;;;;;;13.82;11.27;;;11.50;99.90;;;;;;5041684;28;20413;-85
2022/03/16 12:07:02;;;;;;;15.63;11.85;;;11.50;99.90;;;;;;5046380;28;20865;-84
2022/03/16 12:09:39;;;;;;;14.27;10.90;;;11.50;99.90;;;;;;5045599;28;20391;-87
2022/03/16 12:15:12;;;;;;;14.57;10.93;;;11.80;99.90;;;;;;5044088;28;20372;-85
2022/03/16 12:17:53;;;;;;;19.75;11.20;;;11.80;99.90;;;;;;5040017;28;20382;-87
2022/03/16 12:20:36;;;;;;;12.35;10.13;;;11.70;99.90;;;;;;5044183;28;20385;-87
2022/03/16 12:23:09;;;;;;;13.82;11.13;;;11.70;99.90;;;;;;5042326;28;20466;-86
2022/03/16 12:25:36;;;;;;;13.05;10.85;;;11.70;99.90;;;;;;5041627;28;20490;-85
2022/03/16 12:30:58;;;;;;;14.77;11.18;;;11.70;99.90;;;;;;5044672;28;20414;-86
2022/03/16 12:33:28;;;;;;;13.00;10.50;;;11.80;99.90;;;;;;5047601;28;20388;-87
2022/03/16 12:36:04;;;;;;;11.93;9.80;;;11.70;99.90;;;;;;5043691;28;20409;-87
2022/03/16 12:38:32;;;;;;;12.27;10.03;;;11.80;99.90;;;;;;5071950;28;20376;-85
2022/03/16 12:43:45;;;;;;;31.77;10.63;;;12.20;99.90;;;;;;5044979;28;20407;-86
2022/03/16 12:46:20;;;;;;;25.58;9.23;;;12.20;99.90;;;;;;5044837;28;20391;-88
2022/03/16 12:48:54;;;;;;;22.75;9.05;;;12.30;99.90;;;;;;5045734;28;20411;-85
2022/03/16 12:51:55;;;;;;;23.77;10.20;;;12.20;99.90;;;;;;5042132;28;20389;-86
2022/03/16 12:54:29;;;;;;;12.90;8.15;;;12.30;99.90;;;;;;5034881;28;20936;-87
2022/03/16 12:57:10;;;;;;;11.05;9.18;;;12.40;99.90;;;;;;5044302;28;20399;-88
2022/03/16 12:59:52;;;;;;;12.73;9.20;;;12.30;99.90;;;;;;5038120;28;20394;-84
2022/03/16 13:02:27;;;;;;;11.50;8.70;;;12.20;99.90;;;;;;5032512;28;20393;-84
2022/03/16 13:04:56;;;;;;;11.90;9.48;;;12.30;99.90;;;;;;5052682;28;21033;-87
2022/03/16 13:07:22;;;;;;;13.45;10.15;;;12.20;99.90;;;;;;5054012;28;20404;-89
2022/03/16 13:09:49;;;;;;;14.15;9.30;;;12.20;99.90;;;;;;5052038;28;20368;-86
2022/03/16 13:12:16;;;;;;;13.00;10.40;;;12.20;99.90;;;;;;5053605;28;20897;-88
2022/03/16 13:14:54;;;;;;;12.67;9.93;;;12.30;99.90;;;;;;5051185;28;20380;-86
2022/03/16 13:17:21;;;;;;;13.75;10.35;;;12.20;99.90;;;;;;5051641;28;20498;-85
2022/03/16 13:19:49;;;;;;;13.32;10.13;;;12.10;99.90;;;;;;5051900;28;20419;-85
2022/03/16 13:22:26;;;;;;;14.13;9.45;;;12.20;99.90;;;;;;5053809;28;20391;-91
2022/03/16 13:24:59;;;;;;;12.52;9.82;;;12.20;99.90;;;;;;5052657;28;20989;-88
2022/03/16 13:27:35;;;;;;;12.65;9.82;;;12.30;99.90;;;;;;5052696;28;20573;-86
2022/03/16 13:30:09;;;;;;;11.82;10.00;;;12.20;99.90;;;;;;5052501;28;20468;-87
2022/03/16 13:32:38;;;;;;;12.80;9.82;;;12.20;99.90;;;;;;5051676;28;20400;-89
2022/03/16 13:35:21;;;;;;;11.93;9.60;;;12.20;99.90;;;;;;5052330;28;20411;-87
2022/03/16 13:38:02;;;;;;;42.58;12.43;;;12.20;99.90;;;;;;5052439;28;20427;-89
2022/03/16 13:40:38;;;;;;;20.17;11.20;;;12.10;99.90;;;;;;5047378;28;20387;-89
2022/03/16 13:43:15;;;;;;;16.50;10.95;;;12.10;99.90;;;;;;5052173;28;20427;-87
2022/03/16 13:45:49;;;;;;;13.00;10.23;;;12.00;99.90;;;;;;5055225;28;20475;-88
2022/03/16 13:48:17;;;;;;;22.77;11.35;;;12.10;99.90;;;;;;5053393;28;20432;-86
2022/03/16 13:50:54;;;;;;;32.28;12.77;;;12.10;99.90;;;;;;5053153;28;20399;-88
2022/03/16 13:53:25;;;;;;;12.43;10.93;;;11.90;99.90;;;;;;5051059;28;20395;-87
2022/03/16 13:55:53;;;;;;;12.07;10.63;;;11.80;99.90;;;;;;5053134;28;20384;-90
2022/03/16 13:58:24;;;;;;;12.90;11.23;;;12.00;99.90;;;;;;5052643;28;20388;-88
2022/03/16 14:00:53;;;;;;;13.98;11.48;;;12.00;99.90;;;;;;5050709;28;20383;-90
2022/03/16 14:03:23;;;;;;;14.23;12.10;;;12.00;99.90;;;;;;5053815;28;20387;-89
2022/03/16 14:05:49;;;;;;;13.75;11.95;;;12.10;99.90;;;;;;5056011;28;20490;-88
2022/03/16 14:08:20;;;;;;;18.42;12.68;;;12.20;99.90;;;;;;5052772;28;20390;-85
2022/03/16 14:10:54;;;;;;;17.08;11.80;;;12.20;99.90;;;;;;5052898;28;20407;-86
2022/03/16 14:13:22;;;;;;;13.60;11.40;;;12.30;99.90;;;;;;5051550;28;20419;-88
2022/03/16 14:16:10;;;;;;;15.07;12.17;;;12.30;99.90;;;;;;5052036;28;20481;-85
2022/03/16 14:18:36;;;;;;;22.13;12.20;;;12.50;99.90;;;;;;5050505;28;20609;-88
2022/03/16 14:21:08;;;;;;;18.90;11.52;;;12.60;99.90;;;;;;5062266;28;20446;-87
2022/03/16 14:23:37;;;;;;;13.80;11.75;;;12.60;99.90;;;;;;5050349;28;20383;-87
2022/03/16 14:26:04;;;;;;;13.63;12.23;;;13.00;99.90;;;;;;5051134;28;20916;-87
2022/03/16 14:28:32;;;;;;;50.87;15.30;;;12.80;99.90;;;;;;5051430;28;20972;-86
2022/03/16 14:30:57;;;;;;;23.90;13.27;;;12.70;99.90;;;;;;5050086;28;20415;-86
2022/03/16 14:33:29;;;;;;;13.40;11.98;;;12.40;99.90;;;;;;5049939;28;20380;-86
2022/03/16 14:35:57;;;;;;;13.45;12.00;;;12.50;99.90;;;;;;5051259;28;20387;-89
2022/03/16 14:38:24;;;;;;;24.55;12.50;;;12.70;99.90;;;;;;5050546;28;20368;-88
2022/03/16 14:40:57;;;;;;;20.90;12.80;;;12.90;99.90;;;;;;5051677;28;20434;-85
2022/03/16 14:43:26;;;;;;;15.30;12.98;;;12.80;99.90;;;;;;5046651;28;20384;-87
2022/03/16 14:45:53;;;;;;;15.13;13.10;;;12.80;99.90;;;;;;5043452;28;20377;-88
2022/03/16 14:48:19;;;;;;;15.27;12.60;;;12.70;99.90;;;;;;5045729;28;20881;-85
2022/03/16 14:50:45;;;;;;;14.85;12.20;;;13.10;99.90;;;;;;5048913;28;20380;-87
2022/03/16 14:53:11;;;;;;;16.00;13.55;;;12.90;99.90;;;;;;5048564;28;20457;-87
2022/03/16 14:55:36;;;;;;;18.52;13.93;;;12.60;99.90;;;;;;5050567;28;20384;-85
2022/03/16 14:58:07;;;;;;;32.78;15.32;;;13.10;99.90;;;;;;5045404;28;20443;-87
2022/03/16 15:00:37;;;;;;;20.07;14.90;;;12.90;99.90;;;;;;5050733;28;20416;-86
2022/03/16 15:03:03;;;;;;;27.10;14.70;;;13.00;99.90;;;;;;5048229;28;20411;-88
2022/03/16 15:05:29;;;;;;;19.67;15.57;;;13.20;99.90;;;;;;5043073;28;20460;-86
2022/03/16 15:07:58;;;;;;;26.80;16.10;;;12.90;99.90;;;;;;5042770;28;20372;-89
2022/03/16 15:10:27;;;;;;;19.60;15.50;;;13.20;99.90;;;;;;5041757;28;20392;-88
2022/03/16 15:12:52;;;;;;;19.77;15.40;;;12.70;99.90;;;;;;5052105;28;20407;-87
2022/03/16 15:15:18;;;;;;;18.00;15.07;;;12.70;99.90;;;;;;5047774;28;20842;-84
2022/03/16 15:17:45;;;;;;;19.98;16.45;;;12.70;99.90;;;;;;5045133;28;20409;-88
2022/03/16 15:20:13;;;;;;;19.15;16.38;;;12.60;99.90;;;;;;5045478;28;20385;-86
2022/03/16 15:22:42;;;;;;;51.08;18.10;;;12.70;99.90;;;;;;5047419;28;20997;-88
2022/03/16 15:25:10;;;;;;;20.43;16.27;;;12.60;99.90;;;;;;5047358;28;20436;-88
2022/03/16 15:27:36;;;;;;;20.33;16.30;;;12.50;99.90;;;;;;5058408;28;20460;-87
2022/03/16 15:30:08;;;;;;;21.50;16.77;;;12.40;99.90;;;;;;5057154;28;20416;-90
2022/03/16 15:32:34;;;;;;;23.08;16.98;;;12.40;99.90;;;;;;5046948;28;20479;-89
2022/03/16 15:35:01;;;;;;;23.23;18.17;;;12.40;99.90;;;;;;5047120;28;20401;-86
2022/03/16 15:37:28;;;;;;;20.20;16.30;;;12.30;99.90;;;;;;5044586;28;20398;-87
2022/03/16 15:42:48;;;;;;;39.47;17.60;;;12.20;99.90;;;;;;5047588;28;20389;-87
2022/03/16 15:45:17;;;;;;;21.20;17.17;;;12.20;99.90;;;;;;5044443;28;20804;-86
2022/03/16 15:47:44;;;;;;;24.38;19.65;;;12.30;99.90;;;;;;5040081;28;20754;-86
2022/03/16 15:50:12;;;;;;;27.03;19.07;;;12.20;99.90;;;;;;5040963;28;20381;-87
2022/03/16 15:52:38;;;;;;;22.58;18.35;;;12.30;99.90;;;;;;5045170;28;20948;-88
2022/03/16 15:55:09;;;;;;;24.33;18.85;;;12.20;99.90;;;;;;5046473;28;20773;-87
2022/03/16 15:57:39;;;;;;;24.20;18.80;;;12.20;99.90;;;;;;5045587;28;20402;-85
2022/03/16 16:00:05;;;;;;;32.93;21.60;;;12.00;99.90;;;;;;5044311;28;20388;-85
2022/03/16 16:02:31;;;;;;;29.20;20.98;;;12.10;99.90;;;;;;5052498;28;20375;-83
2022/03/16 16:04:57;;;;;;;30.65;21.83;;;12.00;99.90;;;;;;5052916;28;20754;-84